createdAt,value
2022-08-22T00:00:02.021Z,95430.00
2022-08-22T00:00:13.465Z,95431.00
2022-08-22T00:00:22.163Z,95429.00
2022-08-22T00:00:32.079Z,95432.00
2022-08-22T00:00:42.802Z,95429.00
2022-08-22T00:00:52.197Z,95432.00
2022-08-22T00:01:02.101Z,95431.00
2022-08-22T00:01:11.971Z,95431.00
2022-08-22T00:01:22.048Z,95430.00
2022-08-22T00:01:32.075Z,95430.00
2022-08-22T00:01:42.036Z,95431.00
2022-08-22T00:01:52.091Z,95430.00
2022-08-22T00:02:02.513Z,95430.00
2022-08-22T00:02:12.055Z,95430.00
2022-08-22T00:02:22.027Z,95431.00
2022-08-22T00:02:32.213Z,95429.00
2022-08-22T00:02:41.708Z,95442.00
2022-08-22T00:02:41.887Z,95451.00
2022-08-22T00:02:43.620Z,95439.00
2022-08-22T00:02:44.019Z,95444.00
2022-08-22T00:02:45.887Z,95448.00
2022-08-22T00:02:47.664Z,95451.00
2022-08-22T00:02:49.334Z,95439.00
2022-08-22T00:02:49.863Z,95448.00
2022-08-22T00:02:53.143Z,95457.00
2022-08-22T00:02:54.176Z,95438.00
2022-08-22T00:02:54.354Z,95441.00
2022-08-22T00:02:54.492Z,95447.00
2022-08-22T00:02:55.385Z,95447.00
2022-08-22T00:02:55.494Z,95441.00
2022-08-22T00:02:56.460Z,95461.00
2022-08-22T00:02:59.391Z,95429.00
2022-08-22T00:03:00.349Z,95460.00
2022-08-22T00:03:00.572Z,95448.00
2022-08-22T00:03:00.666Z,95456.00
2022-08-22T00:03:00.779Z,95442.00
2022-08-22T00:03:02.493Z,95449.00
2022-08-22T00:03:04.819Z,95442.00
2022-08-22T00:03:06.627Z,95445.00
2022-08-22T00:03:07.845Z,95446.00
2022-08-22T00:03:08.632Z,95444.00
2022-08-22T00:03:09.129Z,95448.00
2022-08-22T00:03:09.334Z,95444.00
2022-08-22T00:03:09.503Z,95444.00
2022-08-22T00:03:10.557Z,95446.00
2022-08-22T00:03:10.645Z,95444.00
2022-08-22T00:03:11.845Z,95445.00
2022-08-22T00:03:15.629Z,95431.00
2022-08-22T00:03:15.839Z,95431.00
2022-08-22T00:03:18.408Z,95432.00
2022-08-22T00:03:32.248Z,95429.00
2022-08-22T00:03:42.166Z,95431.00
2022-08-22T00:03:52.029Z,95431.00
2022-08-22T00:04:02.139Z,95434.00
2022-08-22T00:04:11.976Z,95429.00
2022-08-22T00:04:22.217Z,95432.00
2022-08-22T00:04:33.460Z,95429.00
2022-08-22T00:04:42.034Z,95430.00
2022-08-22T00:04:51.985Z,95431.00
2022-08-22T00:05:02.212Z,95431.00
2022-08-22T00:05:12.305Z,95432.00
2022-08-22T00:05:22.270Z,95434.00
2022-08-22T00:05:32.220Z,95433.00
2022-08-22T00:05:42.006Z,95431.00
2022-08-22T00:05:52.008Z,95428.00
2022-08-22T00:06:02.081Z,95431.00
2022-08-22T00:06:12.251Z,95432.00
2022-08-22T00:06:22.182Z,95429.00
2022-08-22T00:06:32.453Z,95430.00
2022-08-22T00:06:42.070Z,95428.00
2022-08-22T00:06:51.998Z,95431.00
2022-08-22T00:07:02.240Z,95427.00
2022-08-22T00:07:12.141Z,95429.00
2022-08-22T00:07:22.086Z,95429.00
2022-08-22T00:07:32.308Z,95432.00
2022-08-22T00:07:42.089Z,95432.00
2022-08-22T00:07:52.242Z,95431.00
2022-08-22T00:08:02.182Z,95428.00
2022-08-22T00:08:12.338Z,95434.00
2022-08-22T00:08:22.152Z,95430.00
2022-08-22T00:08:32.025Z,95430.00
2022-08-22T00:08:42.217Z,95431.00
2022-08-22T00:08:52.154Z,95428.00
2022-08-22T00:09:02.239Z,95431.00
2022-08-22T00:09:12.049Z,95432.00
2022-08-22T00:09:22.195Z,95433.00
2022-08-22T00:09:32.233Z,95427.00
2022-08-22T00:09:42.139Z,95430.00
2022-08-22T00:09:52.160Z,95432.00
2022-08-22T00:10:02.209Z,95430.00
2022-08-22T00:10:12.110Z,95428.00
2022-08-22T00:10:25.468Z,95428.00
2022-08-22T00:10:32.113Z,95429.00
2022-08-22T00:10:42.453Z,95431.00
2022-08-22T00:10:52.149Z,95429.00
2022-08-22T00:11:01.976Z,95429.00
2022-08-22T00:11:11.985Z,95431.00
2022-08-22T00:11:22.166Z,95429.00
2022-08-22T00:11:32.099Z,95429.00
2022-08-22T00:11:41.997Z,95434.00
2022-08-22T00:11:51.986Z,95429.00
2022-08-22T00:12:02.264Z,95429.00
2022-08-22T00:12:12.076Z,95430.00
2022-08-22T00:12:22.443Z,95430.00
2022-08-22T00:12:32.283Z,95429.00
2022-08-22T00:12:42.053Z,95431.00
2022-08-22T00:12:52.261Z,95430.00
2022-08-22T00:13:02.033Z,95431.00
2022-08-22T00:13:12.131Z,95432.00
2022-08-22T00:13:21.968Z,95430.00
2022-08-22T00:13:32.012Z,95427.00
2022-08-22T00:13:41.987Z,95428.00
2022-08-22T00:14:01.102Z,95432.00
2022-08-22T00:14:02.299Z,95429.00
2022-08-22T00:14:12.247Z,95430.00
2022-08-22T00:14:22.095Z,95431.00
2022-08-22T00:14:32.215Z,95426.00
2022-08-22T00:14:42.205Z,95432.00
2022-08-22T00:14:52.029Z,95432.00
2022-08-22T00:15:02.107Z,95428.00
2022-08-22T00:15:16.372Z,95432.00
2022-08-22T00:15:41.872Z,95432.00
2022-08-22T00:15:42.838Z,95431.00
2022-08-22T00:15:44.309Z,95429.00
2022-08-22T00:15:52.163Z,95429.00
2022-08-22T00:16:01.975Z,95428.00
2022-08-22T00:16:12.119Z,95430.00
2022-08-22T00:16:22.293Z,95431.00
2022-08-22T00:16:32.245Z,95429.00
2022-08-22T00:16:42.282Z,95429.00
2022-08-22T00:16:53.559Z,95432.00
2022-08-22T00:17:02.129Z,95430.00
2022-08-22T00:17:12.094Z,95431.00
2022-08-22T00:17:21.964Z,95431.00
2022-08-22T00:17:32.085Z,95433.00
2022-08-22T00:17:42.207Z,95432.00
2022-08-22T00:17:52.145Z,95430.00
2022-08-22T00:18:02.304Z,95430.00
2022-08-22T00:18:12.116Z,95434.00
2022-08-22T00:18:22.097Z,95430.00
2022-08-22T00:18:31.963Z,95430.00
2022-08-22T00:18:42.145Z,95427.00
2022-08-22T00:18:52.052Z,95430.00
2022-08-22T00:19:02.229Z,95429.00
2022-08-22T00:19:12.271Z,95428.00
2022-08-22T00:19:22.063Z,95430.00
2022-08-22T00:19:32.011Z,95431.00
2022-08-22T00:19:42.195Z,95430.00
2022-08-22T00:19:52.116Z,95430.00
2022-08-22T00:20:02.197Z,95429.00
2022-08-22T00:20:11.991Z,95428.00
2022-08-22T00:20:22.221Z,95433.00
2022-08-22T00:20:32.186Z,95428.00
2022-08-22T00:20:42.097Z,95429.00
2022-08-22T00:20:52.232Z,95429.00
2022-08-22T00:21:02.166Z,95431.00
2022-08-22T00:21:12.116Z,95427.00
2022-08-22T00:21:22.204Z,95428.00
2022-08-22T00:21:31.965Z,95428.00
2022-08-22T00:21:42.278Z,95429.00
2022-08-22T00:21:51.969Z,95427.00
2022-08-22T00:22:02.138Z,95428.00
2022-08-22T00:22:12.059Z,95430.00
2022-08-22T00:22:21.973Z,95429.00
2022-08-22T00:22:32.254Z,95426.00
2022-08-22T00:22:42.014Z,95428.00
2022-08-22T00:22:52.192Z,95428.00
2022-08-22T00:23:01.985Z,95428.00
2022-08-22T00:23:12.102Z,95428.00
2022-08-22T00:23:22.065Z,95430.00
2022-08-22T00:23:32.198Z,95432.00
2022-08-22T00:23:42.273Z,95428.00
2022-08-22T00:23:52.184Z,95431.00
2022-08-22T00:24:02.000Z,95428.00
2022-08-22T00:24:12.395Z,95428.00
2022-08-22T00:24:22.237Z,95429.00
2022-08-22T00:24:31.969Z,95430.00
2022-08-22T00:24:42.234Z,95431.00
2022-08-22T00:24:52.082Z,95431.00
2022-08-22T00:25:01.986Z,95430.00
2022-08-22T00:25:24.593Z,95431.00
2022-08-22T00:25:25.721Z,95429.00
2022-08-22T00:25:31.960Z,95427.00
2022-08-22T00:25:42.060Z,95433.00
2022-08-22T00:25:51.976Z,95430.00
2022-08-22T00:26:02.114Z,95430.00
2022-08-22T00:26:12.214Z,95430.00
2022-08-22T00:26:22.078Z,95429.00
2022-08-22T00:26:32.138Z,95428.00
2022-08-22T00:26:45.225Z,95428.00
2022-08-22T00:26:52.186Z,95428.00
2022-08-22T00:27:02.251Z,95431.00
2022-08-22T00:27:12.047Z,95427.00
2022-08-22T00:27:22.078Z,95431.00
2022-08-22T00:27:32.016Z,95431.00
2022-08-22T00:27:44.894Z,95431.00
2022-08-22T00:27:52.178Z,95434.00
2022-08-22T00:28:02.043Z,95431.00
2022-08-22T00:28:12.270Z,95430.00
2022-08-22T00:28:22.050Z,95432.00
2022-08-22T00:28:32.351Z,95428.00
2022-08-22T00:28:41.985Z,95427.00
2022-08-22T00:28:52.043Z,95432.00
2022-08-22T00:29:02.050Z,95429.00
2022-08-22T00:29:12.209Z,95429.00
2022-08-22T00:29:22.079Z,95431.00
2022-08-22T00:29:32.229Z,95429.00
2022-08-22T00:29:41.989Z,95428.00
2022-08-22T00:29:52.348Z,95430.00
2022-08-22T00:30:02.099Z,95428.00
2022-08-22T00:30:12.006Z,95429.00
2022-08-22T00:30:22.051Z,95431.00
2022-08-22T00:30:32.060Z,95427.00
2022-08-22T00:30:42.182Z,95431.00
2022-08-22T00:30:52.148Z,95428.00
2022-08-22T00:31:02.042Z,95433.00
2022-08-22T00:31:12.009Z,95429.00
2022-08-22T00:31:22.122Z,95428.00
2022-08-22T00:31:32.150Z,95432.00
2022-08-22T00:31:42.029Z,95428.00
2022-08-22T00:31:52.194Z,95428.00
2022-08-22T00:32:02.136Z,95428.00
2022-08-22T00:32:11.972Z,95428.00
2022-08-22T00:32:21.994Z,95430.00
2022-08-22T00:32:32.158Z,95430.00
2022-08-22T00:32:42.149Z,95427.00
2022-08-22T00:32:52.149Z,95430.00
2022-08-22T00:33:02.225Z,95428.00
2022-08-22T00:33:12.186Z,95426.00
2022-08-22T00:33:22.115Z,95430.00
2022-08-22T00:33:32.008Z,95427.00
2022-08-22T00:33:42.071Z,95426.00
2022-08-22T00:33:52.025Z,95427.00
2022-08-22T00:34:02.060Z,95428.00
2022-08-22T00:34:12.055Z,95428.00
2022-08-22T00:34:22.114Z,95427.00
2022-08-22T00:34:32.055Z,95427.00
2022-08-22T00:34:42.132Z,95428.00
2022-08-22T00:34:52.106Z,95427.00
2022-08-22T00:35:01.971Z,95426.00
2022-08-22T00:35:12.433Z,95428.00
2022-08-22T00:35:22.266Z,95426.00
2022-08-22T00:35:32.081Z,95429.00
2022-08-22T00:35:45.151Z,95429.00
2022-08-22T00:35:52.025Z,95430.00
2022-08-22T00:36:01.978Z,95428.00
2022-08-22T00:36:11.979Z,95432.00
2022-08-22T00:36:22.147Z,95426.00
2022-08-22T00:36:32.118Z,95429.00
2022-08-22T00:36:41.989Z,95428.00
2022-08-22T00:36:51.987Z,95426.00
2022-08-22T00:37:02.038Z,95426.00
2022-08-22T00:37:12.131Z,95427.00
2022-08-22T00:37:22.279Z,95431.00
2022-08-22T00:37:32.198Z,95427.00
2022-08-22T00:37:42.126Z,95427.00
2022-08-22T00:37:52.088Z,95431.00
2022-08-22T00:38:02.187Z,95428.00
2022-08-22T00:38:12.209Z,95431.00
2022-08-22T00:38:22.235Z,95431.00
2022-08-22T00:38:32.035Z,95430.00
2022-08-22T00:38:41.985Z,95428.00
2022-08-22T00:38:52.327Z,95431.00
2022-08-22T00:39:02.270Z,95426.00
2022-08-22T00:39:12.033Z,95429.00
2022-08-22T00:39:22.210Z,95431.00
2022-08-22T00:39:32.195Z,95431.00
2022-08-22T00:39:42.115Z,95434.00
2022-08-22T00:39:52.120Z,95430.00
2022-08-22T00:40:03.479Z,95432.00
2022-08-22T00:40:12.038Z,95432.00
2022-08-22T00:40:22.217Z,95428.00
2022-08-22T00:40:32.217Z,95430.00
2022-08-22T00:40:42.058Z,95434.00
2022-08-22T00:40:52.074Z,95429.00
2022-08-22T00:41:02.249Z,95431.00
2022-08-22T00:41:11.964Z,95430.00
2022-08-22T00:41:22.017Z,95431.00
2022-08-22T00:41:31.970Z,95432.00
2022-08-22T00:41:42.098Z,95430.00
2022-08-22T00:41:52.233Z,95433.00
2022-08-22T00:42:02.278Z,95435.00
2022-08-22T00:42:12.180Z,95429.00
2022-08-22T00:42:31.414Z,95431.00
2022-08-22T00:42:32.423Z,95431.00
2022-08-22T00:42:42.008Z,95435.00
2022-08-22T00:42:52.240Z,95437.00
2022-08-22T00:43:02.090Z,95436.00
2022-08-22T00:43:12.213Z,95435.00
2022-08-22T00:43:22.104Z,95436.00
2022-08-22T00:43:32.051Z,95435.00
2022-08-22T00:43:42.270Z,95434.00
2022-08-22T00:43:52.102Z,95437.00
2022-08-22T00:44:02.217Z,95430.00
2022-08-22T00:44:12.034Z,95438.00
2022-08-22T00:44:22.110Z,95434.00
2022-08-22T00:44:31.995Z,95433.00
2022-08-22T00:44:42.040Z,95434.00
2022-08-22T00:44:52.126Z,95432.00
2022-08-22T00:45:02.243Z,95431.00
2022-08-22T00:45:11.974Z,95434.00
2022-08-22T00:45:22.047Z,95435.00
2022-08-22T00:45:32.069Z,95435.00
2022-08-22T00:45:42.018Z,95433.00
2022-08-22T00:45:52.007Z,95434.00
2022-08-22T00:46:02.096Z,95432.00
2022-08-22T00:46:14.548Z,95434.00
2022-08-22T00:46:21.983Z,95431.00
2022-08-22T00:46:32.076Z,95434.00
2022-08-22T00:46:42.078Z,95436.00
2022-08-22T00:46:52.208Z,95436.00
2022-08-22T00:47:02.131Z,95432.00
2022-08-22T00:47:12.192Z,95435.00
2022-08-22T00:47:22.179Z,95433.00
2022-08-22T00:47:31.990Z,95434.00
2022-08-22T00:47:42.160Z,95432.00
2022-08-22T00:47:52.130Z,95432.00
2022-08-22T00:48:02.256Z,95434.00
2022-08-22T00:48:14.406Z,95435.00
2022-08-22T00:48:22.054Z,95432.00
2022-08-22T00:48:32.131Z,95430.00
2022-08-22T00:48:42.105Z,95429.00
2022-08-22T00:48:52.376Z,95434.00
2022-08-22T00:49:01.990Z,95433.00
2022-08-22T00:49:12.089Z,95432.00
2022-08-22T00:49:22.106Z,95430.00
2022-08-22T00:49:32.220Z,95430.00
2022-08-22T00:49:42.137Z,95432.00
2022-08-22T00:49:52.127Z,95431.00
2022-08-22T00:50:02.071Z,95432.00
2022-08-22T00:50:12.134Z,95432.00
2022-08-22T00:50:22.086Z,95432.00
2022-08-22T00:50:32.120Z,95431.00
2022-08-22T00:50:42.034Z,95432.00
2022-08-22T00:50:52.153Z,95432.00
2022-08-22T00:51:02.142Z,95434.00
2022-08-22T00:51:11.964Z,95433.00
2022-08-22T00:51:22.123Z,95429.00
2022-08-22T00:51:32.094Z,95429.00
2022-08-22T00:51:41.999Z,95430.00
2022-08-22T00:51:52.110Z,95432.00
2022-08-22T00:52:02.079Z,95432.00
2022-08-22T00:52:12.161Z,95430.00
2022-08-22T00:52:22.036Z,95434.00
2022-08-22T00:52:32.054Z,95430.00
2022-08-22T00:52:42.042Z,95429.00
2022-08-22T00:52:52.182Z,95428.00
2022-08-22T00:53:02.044Z,95431.00
2022-08-22T00:53:11.977Z,95429.00
2022-08-22T00:53:22.206Z,95432.00
2022-08-22T00:53:32.142Z,95433.00
2022-08-22T00:53:42.114Z,95428.00
2022-08-22T00:53:52.035Z,95432.00
2022-08-22T00:54:02.195Z,95432.00
2022-08-22T00:54:17.605Z,95431.00
2022-08-22T00:54:22.077Z,95427.00
2022-08-22T00:54:32.069Z,95433.00
2022-08-22T00:54:42.074Z,95434.00
2022-08-22T00:54:52.062Z,95436.00
2022-08-22T00:55:02.161Z,95431.00
2022-08-22T00:55:12.005Z,95431.00
2022-08-22T00:55:22.110Z,95435.00
2022-08-22T00:55:34.907Z,95435.00
2022-08-22T00:55:42.240Z,95435.00
2022-08-22T00:55:52.133Z,95434.00
2022-08-22T00:56:02.165Z,95435.00
2022-08-22T00:56:11.991Z,95436.00
2022-08-22T00:56:21.979Z,95435.00
2022-08-22T00:56:32.116Z,95436.00
2022-08-22T00:56:42.253Z,95436.00
2022-08-22T00:56:52.202Z,95438.00
2022-08-22T00:57:02.237Z,95437.00
2022-08-22T00:57:12.109Z,95439.00
2022-08-22T00:57:22.052Z,95438.00
2022-08-22T00:57:31.980Z,95437.00
2022-08-22T00:57:42.040Z,95435.00
2022-08-22T00:57:52.229Z,95434.00
2022-08-22T00:58:02.239Z,95436.00
2022-08-22T00:58:12.176Z,95438.00
2022-08-22T00:58:22.011Z,95437.00
2022-08-22T00:58:32.156Z,95435.00
2022-08-22T00:58:42.114Z,95438.00
2022-08-22T00:58:52.219Z,95437.00
2022-08-22T00:59:22.754Z,95437.00
2022-08-22T00:59:23.074Z,95439.00
2022-08-22T00:59:23.785Z,95438.00
2022-08-22T00:59:32.095Z,95435.00
2022-08-22T00:59:42.227Z,95436.00
2022-08-22T00:59:52.152Z,95434.00
2022-08-22T01:00:02.222Z,95435.00
2022-08-22T01:00:12.006Z,95436.00
2022-08-22T01:00:21.985Z,95435.00
2022-08-22T01:00:34.362Z,95435.00
2022-08-22T01:00:42.169Z,95435.00
2022-08-22T01:00:52.209Z,95436.00
2022-08-22T01:01:02.120Z,95434.00
2022-08-22T01:01:12.208Z,95433.00
2022-08-22T01:01:22.041Z,95434.00
2022-08-22T01:01:32.187Z,95434.00
2022-08-22T01:01:42.043Z,95434.00
2022-08-22T01:01:52.061Z,95433.00
2022-08-22T01:02:02.092Z,95436.00
2022-08-22T01:02:12.132Z,95435.00
2022-08-22T01:02:22.189Z,95434.00
2022-08-22T01:02:32.233Z,95435.00
2022-08-22T01:02:41.978Z,95433.00
2022-08-22T01:02:52.899Z,95433.00
2022-08-22T01:03:02.178Z,95432.00
2022-08-22T01:03:11.959Z,95432.00
2022-08-22T01:03:21.979Z,95433.00
2022-08-22T01:03:32.211Z,95434.00
2022-08-22T01:03:42.072Z,95433.00
2022-08-22T01:03:52.126Z,95436.00
2022-08-22T01:04:02.137Z,95435.00
2022-08-22T01:04:12.235Z,95436.00
2022-08-22T01:04:22.148Z,95436.00
2022-08-22T01:04:32.251Z,95428.00
2022-08-22T01:04:42.048Z,95431.00
2022-08-22T01:04:52.183Z,95431.00
2022-08-22T01:05:02.099Z,95434.00
2022-08-22T01:05:12.163Z,95432.00
2022-08-22T01:05:21.979Z,95434.00
2022-08-22T01:05:32.030Z,95433.00
2022-08-22T01:05:42.127Z,95430.00
2022-08-22T01:05:52.262Z,95428.00
2022-08-22T01:06:02.248Z,95430.00
2022-08-22T01:06:12.017Z,95434.00
2022-08-22T01:06:22.321Z,95430.00
2022-08-22T01:06:32.262Z,95434.00
2022-08-22T01:06:41.993Z,95433.00
2022-08-22T01:06:52.083Z,95431.00
2022-08-22T01:07:02.157Z,95434.00
2022-08-22T01:07:12.174Z,95434.00
2022-08-22T01:07:22.002Z,95435.00
2022-08-22T01:07:37.799Z,95428.00
2022-08-22T01:07:42.258Z,95432.00
2022-08-22T01:07:52.270Z,95433.00
2022-08-22T01:08:02.087Z,95433.00
2022-08-22T01:08:12.215Z,95429.00
2022-08-22T01:08:22.229Z,95433.00
2022-08-22T01:08:32.172Z,95430.00
2022-08-22T01:08:42.115Z,95431.00
2022-08-22T01:08:52.119Z,95430.00
2022-08-22T01:09:02.118Z,95434.00
2022-08-22T01:09:12.205Z,95436.00
2022-08-22T01:09:22.036Z,95432.00
2022-08-22T01:09:32.252Z,95433.00
2022-08-22T01:09:42.091Z,95434.00
2022-08-22T01:09:52.075Z,95433.00
2022-08-22T01:10:02.067Z,95434.00
2022-08-22T01:10:12.001Z,95434.00
2022-08-22T01:10:22.034Z,95436.00
2022-08-22T01:10:32.022Z,95436.00
2022-08-22T01:10:42.166Z,95436.00
2022-08-22T01:10:52.030Z,95436.00
2022-08-22T01:11:01.996Z,95431.00
2022-08-22T01:11:12.009Z,95433.00
2022-08-22T01:11:22.060Z,95431.00
2022-08-22T01:11:32.369Z,95432.00
2022-08-22T01:11:42.127Z,95436.00
2022-08-22T01:11:51.979Z,95434.00
2022-08-22T01:12:02.085Z,95436.00
2022-08-22T01:12:12.145Z,95433.00
2022-08-22T01:12:22.129Z,95435.00
2022-08-22T01:12:32.225Z,95436.00
2022-08-22T01:12:41.979Z,95434.00
2022-08-22T01:12:52.243Z,95435.00
2022-08-22T01:13:02.286Z,95433.00
2022-08-22T01:13:12.160Z,95435.00
2022-08-22T01:13:22.174Z,95433.00
2022-08-22T01:13:32.137Z,95433.00
2022-08-22T01:13:41.984Z,95435.00
2022-08-22T01:13:52.069Z,95436.00
2022-08-22T01:14:02.158Z,95435.00
2022-08-22T01:14:12.190Z,95436.00
2022-08-22T01:14:34.380Z,95435.00
2022-08-22T01:14:35.047Z,95434.00
2022-08-22T01:14:42.046Z,95433.00
2022-08-22T01:14:52.091Z,95435.00
2022-08-22T01:15:02.057Z,95438.00
2022-08-22T01:15:12.065Z,95432.00
2022-08-22T01:15:22.124Z,95437.00
2022-08-22T01:15:32.062Z,95433.00
2022-08-22T01:15:42.226Z,95431.00
2022-08-22T01:15:52.023Z,95434.00
2022-08-22T01:16:02.132Z,95434.00
2022-08-22T01:16:12.260Z,95433.00
2022-08-22T01:16:22.259Z,95434.00
2022-08-22T01:16:32.052Z,95433.00
2022-08-22T01:16:42.250Z,95434.00
2022-08-22T01:16:52.206Z,95431.00
2022-08-22T01:17:02.071Z,95432.00
2022-08-22T01:17:12.011Z,95428.00
2022-08-22T01:17:22.059Z,95430.00
2022-08-22T01:17:32.134Z,95433.00
2022-08-22T01:17:42.110Z,95432.00
2022-08-22T01:17:52.013Z,95432.00
2022-08-22T01:18:02.124Z,95429.00
2022-08-22T01:18:12.018Z,95431.00
2022-08-22T01:18:22.094Z,95431.00
2022-08-22T01:18:32.023Z,95430.00
2022-08-22T01:18:42.202Z,95431.00
2022-08-22T01:18:52.047Z,95432.00
2022-08-22T01:19:02.253Z,95429.00
2022-08-22T01:19:12.087Z,95428.00
2022-08-22T01:19:21.966Z,95430.00
2022-08-22T01:19:32.103Z,95430.00
2022-08-22T01:19:42.003Z,95429.00
2022-08-22T01:19:52.209Z,95428.00
2022-08-22T01:20:02.047Z,95430.00
2022-08-22T01:20:12.230Z,95429.00
2022-08-22T01:20:22.118Z,95431.00
2022-08-22T01:20:32.060Z,95430.00
2022-08-22T01:20:42.166Z,95427.00
2022-08-22T01:20:52.081Z,95428.00
2022-08-22T01:21:02.092Z,95432.00
2022-08-22T01:21:12.190Z,95429.00
2022-08-22T01:21:24.202Z,95427.00
2022-08-22T01:21:32.101Z,95429.00
2022-08-22T01:21:42.133Z,95424.00
2022-08-22T01:21:52.028Z,95426.00
2022-08-22T01:22:02.041Z,95426.00
2022-08-22T01:22:12.001Z,95427.00
2022-08-22T01:22:22.209Z,95427.00
2022-08-22T01:22:32.020Z,95427.00
2022-08-22T01:22:42.213Z,95429.00
2022-08-22T01:22:52.238Z,95426.00
2022-08-22T01:23:01.984Z,95428.00
2022-08-22T01:23:12.177Z,95426.00
2022-08-22T01:23:22.179Z,95426.00
2022-08-22T01:23:32.153Z,95423.00
2022-08-22T01:23:42.074Z,95425.00
2022-08-22T01:23:52.184Z,95425.00
2022-08-22T01:24:02.262Z,95426.00
2022-08-22T01:24:12.108Z,95428.00
2022-08-22T01:24:22.153Z,95426.00
2022-08-22T01:24:32.025Z,95427.00
2022-08-22T01:24:41.973Z,95424.00
2022-08-22T01:24:51.983Z,95424.00
2022-08-22T01:25:02.150Z,95423.00
2022-08-22T01:25:12.243Z,95423.00
2022-08-22T01:25:25.822Z,95423.00
2022-08-22T01:25:32.096Z,95422.00
2022-08-22T01:25:42.225Z,95419.00
2022-08-22T01:25:52.157Z,95420.00
2022-08-22T01:26:02.157Z,95422.00
2022-08-22T01:26:12.106Z,95420.00
2022-08-22T01:26:21.980Z,95422.00
2022-08-22T01:26:32.138Z,95419.00
2022-08-22T01:26:44.755Z,95420.00
2022-08-22T01:26:52.142Z,95420.00
2022-08-22T01:27:02.120Z,95422.00
2022-08-22T01:27:12.074Z,95418.00
2022-08-22T01:27:22.246Z,95420.00
2022-08-22T01:27:32.026Z,95424.00
2022-08-22T01:27:42.152Z,95418.00
2022-08-22T01:27:52.025Z,95419.00
2022-08-22T01:28:02.061Z,95423.00
2022-08-22T01:28:12.097Z,95422.00
2022-08-22T01:28:23.285Z,95419.00
2022-08-22T01:28:32.146Z,95419.00
2022-08-22T01:28:41.988Z,95419.00
2022-08-22T01:28:52.119Z,95423.00
2022-08-22T01:29:02.154Z,95420.00
2022-08-22T01:29:12.180Z,95418.00
2022-08-22T01:29:28.462Z,95414.00
2022-08-22T01:29:32.242Z,95417.00
2022-08-22T01:29:42.217Z,95414.00
2022-08-22T01:29:52.152Z,95419.00
2022-08-22T01:30:02.083Z,95417.00
2022-08-22T01:30:12.011Z,95415.00
2022-08-22T01:30:22.670Z,95414.00
2022-08-22T01:30:32.206Z,95415.00
2022-08-22T01:30:42.063Z,95414.00
2022-08-22T01:30:52.068Z,95414.00
2022-08-22T01:31:02.071Z,95414.00
2022-08-22T01:31:12.060Z,95414.00
2022-08-22T01:31:22.237Z,95416.00
2022-08-22T01:31:32.009Z,95414.00
2022-08-22T01:31:42.014Z,95415.00
2022-08-22T01:31:51.977Z,95411.00
2022-08-22T01:32:02.227Z,95415.00
2022-08-22T01:32:11.992Z,95413.00
2022-08-22T01:32:22.073Z,95416.00
2022-08-22T01:32:32.109Z,95414.00
2022-08-22T01:32:42.040Z,95415.00
2022-08-22T01:32:56.967Z,95415.00
2022-08-22T01:33:02.041Z,95415.00
2022-08-22T01:33:12.138Z,95416.00
2022-08-22T01:33:22.153Z,95414.00
2022-08-22T01:33:32.020Z,95414.00
2022-08-22T01:33:42.144Z,95416.00
2022-08-22T01:33:52.025Z,95412.00
2022-08-22T01:34:01.984Z,95415.00
2022-08-22T01:34:13.094Z,95416.00
2022-08-22T01:34:22.115Z,95415.00
2022-08-22T01:34:32.198Z,95414.00
2022-08-22T01:34:42.010Z,95416.00
2022-08-22T01:34:52.223Z,95415.00
2022-08-22T01:35:02.057Z,95413.00
2022-08-22T01:35:11.969Z,95416.00
2022-08-22T01:35:22.156Z,95417.00
2022-08-22T01:35:32.010Z,95413.00
2022-08-22T01:35:42.037Z,95417.00
2022-08-22T01:35:52.242Z,95411.00
2022-08-22T01:36:02.118Z,95416.00
2022-08-22T01:36:12.115Z,95415.00
2022-08-22T01:36:22.122Z,95414.00
2022-08-22T01:36:32.130Z,95417.00
2022-08-22T01:36:41.960Z,95416.00
2022-08-22T01:36:52.261Z,95415.00
2022-08-22T01:37:02.244Z,95416.00
2022-08-22T01:37:12.043Z,95417.00
2022-08-22T01:37:21.985Z,95416.00
2022-08-22T01:37:31.988Z,95417.00
2022-08-22T01:37:43.680Z,95416.00
2022-08-22T01:37:51.977Z,95417.00
2022-08-22T01:38:02.195Z,95419.00
2022-08-22T01:38:12.057Z,95415.00
2022-08-22T01:38:22.007Z,95415.00
2022-08-22T01:38:32.011Z,95420.00
2022-08-22T01:38:42.236Z,95418.00
2022-08-22T01:38:52.173Z,95417.00
2022-08-22T01:39:02.069Z,95417.00
2022-08-22T01:39:12.179Z,95419.00
2022-08-22T01:39:22.030Z,95419.00
2022-08-22T01:39:32.067Z,95417.00
2022-08-22T01:39:42.169Z,95417.00
2022-08-22T01:39:52.165Z,95416.00
2022-08-22T01:40:02.155Z,95419.00
2022-08-22T01:40:12.119Z,95418.00
2022-08-22T01:40:22.327Z,95415.00
2022-08-22T01:40:32.246Z,95416.00
2022-08-22T01:40:53.482Z,95420.00
2022-08-22T01:40:53.988Z,95419.00
2022-08-22T01:41:02.133Z,95419.00
2022-08-22T01:41:12.135Z,95421.00
2022-08-22T01:41:22.027Z,95418.00
2022-08-22T01:41:32.269Z,95416.00
2022-08-22T01:41:42.027Z,95417.00
2022-08-22T01:41:52.065Z,95419.00
2022-08-22T01:42:02.111Z,95419.00
2022-08-22T01:42:12.134Z,95416.00
2022-08-22T01:42:22.208Z,95420.00
2022-08-22T01:42:32.097Z,95419.00
2022-08-22T01:42:42.027Z,95421.00
2022-08-22T01:42:51.971Z,95419.00
2022-08-22T01:43:02.032Z,95420.00
2022-08-22T01:43:12.053Z,95418.00
2022-08-22T01:43:21.979Z,95419.00
2022-08-22T01:43:58.836Z,95420.00
2022-08-22T01:43:59.620Z,95419.00
2022-08-22T01:44:00.543Z,95421.00
2022-08-22T01:44:02.003Z,95423.00
2022-08-22T01:44:11.987Z,95420.00
2022-08-22T01:44:22.197Z,95421.00
2022-08-22T01:44:31.991Z,95420.00
2022-08-22T01:44:42.117Z,95419.00
2022-08-22T01:44:52.176Z,95420.00
2022-08-22T01:45:02.084Z,95417.00
2022-08-22T01:45:12.210Z,95418.00
2022-08-22T01:45:22.025Z,95420.00
2022-08-22T01:45:32.103Z,95423.00
2022-08-22T01:45:42.022Z,95418.00
2022-08-22T01:45:51.991Z,95422.00
2022-08-22T01:46:02.086Z,95422.00
2022-08-22T01:46:12.049Z,95421.00
2022-08-22T01:46:22.164Z,95421.00
2022-08-22T01:46:32.239Z,95424.00
2022-08-22T01:46:42.191Z,95423.00
2022-08-22T01:46:52.105Z,95422.00
2022-08-22T01:47:02.073Z,95420.00
2022-08-22T01:47:12.078Z,95420.00
2022-08-22T01:47:21.996Z,95420.00
2022-08-22T01:47:36.741Z,95423.00
2022-08-22T01:47:42.179Z,95421.00
2022-08-22T01:47:53.618Z,95421.00
2022-08-22T01:48:01.996Z,95420.00
2022-08-22T01:48:12.226Z,95423.00
2022-08-22T01:48:22.138Z,95421.00
2022-08-22T01:48:32.070Z,95424.00
2022-08-22T01:48:42.086Z,95424.00
2022-08-22T01:48:52.162Z,95424.00
2022-08-22T01:49:01.999Z,95423.00
2022-08-22T01:49:12.015Z,95422.00
2022-08-22T01:49:22.113Z,95421.00
2022-08-22T01:49:32.155Z,95429.00
2022-08-22T01:49:42.215Z,95428.00
2022-08-22T01:49:52.149Z,95427.00
2022-08-22T01:50:02.112Z,95426.00
2022-08-22T01:50:12.030Z,95427.00
2022-08-22T01:50:22.064Z,95429.00
2022-08-22T01:50:32.143Z,95424.00
2022-08-22T01:50:42.024Z,95423.00
2022-08-22T01:50:51.987Z,95427.00
2022-08-22T01:51:02.198Z,95425.00
2022-08-22T01:51:12.061Z,95425.00
2022-08-22T01:51:22.162Z,95428.00
2022-08-22T01:51:32.188Z,95425.00
2022-08-22T01:51:42.156Z,95429.00
2022-08-22T01:51:52.029Z,95424.00
2022-08-22T01:52:02.038Z,95425.00
2022-08-22T01:52:12.071Z,95425.00
2022-08-22T01:52:22.165Z,95428.00
2022-08-22T01:52:32.146Z,95430.00